sensor_id;sensor_type;location;lat;lon;timestamp;P1;durP1;ratioP1;P2;durP2;ratioP2
60354;SDS011;46198;51.464;-0.066;2023-04-25T00:01:03;12.60;;;3.10;;
60354;SDS011;46198;51.464;-0.066;2023-04-25T00:03:31;6.53;;;3.13;;
60354;SDS011;46198;51.464;-0.066;2023-04-25T00:06:00;15.00;;;3.43;;
60354;SDS011;46198;51.464;-0.066;2023-04-25T00:08:31;12.83;;;3.80;;
60354;SDS011;46198;51.464;-0.066;2023-04-25T00:10:58;8.50;;;3.00;;
60354;SDS011;46198;51.464;-0.066;2023-04-25T00:13:27;11.10;;;3.10;;
60354;SDS011;46198;51.464;-0.066;2023-04-25T00:15:55;14.83;;;3.50;;
60354;SDS011;46198;51.464;-0.066;2023-04-25T00:18:24;13.03;;;3.63;;
60354;SDS011;46198;51.464;-0.066;2023-04-25T00:20:55;14.18;;;3.95;;
60354;SDS011;46198;51.464;-0.066;2023-04-25T00:23:23;12.47;;;3.23;;
60354;SDS011;46198;51.464;-0.066;2023-04-25T00:25:53;15.70;;;3.10;;
60354;SDS011;46198;51.464;-0.066;2023-04-25T00:28:21;16.40;;;3.57;;
60354;SDS011;46198;51.464;-0.066;2023-04-25T00:30:49;7.70;;;2.53;;
60354;SDS011;46198;51.464;-0.066;2023-04-25T00:33:17;15.40;;;3.40;;
60354;SDS011;46198;51.464;-0.066;2023-04-25T00:35:45;14.90;;;3.63;;
60354;SDS011;46198;51.464;-0.066;2023-04-25T00:38:13;11.57;;;2.97;;
60354;SDS011;46198;51.464;-0.066;2023-04-25T00:40:41;10.73;;;3.00;;
60354;SDS011;46198;51.464;-0.066;2023-04-25T00:43:11;10.57;;;3.03;;
60354;SDS011;46198;51.464;-0.066;2023-04-25T00:45:39;8.60;;;2.90;;
60354;SDS011;46198;51.464;-0.066;2023-04-25T00:48:07;10.33;;;2.73;;
60354;SDS011;46198;51.464;-0.066;2023-04-25T00:50:36;9.07;;;2.40;;
60354;SDS011;46198;51.464;-0.066;2023-04-25T00:53:04;11.90;;;2.63;;
60354;SDS011;46198;51.464;-0.066;2023-04-25T00:55:32;14.57;;;3.87;;
60354;SDS011;46198;51.464;-0.066;2023-04-25T00:58:02;11.90;;;2.80;;
60354;SDS011;46198;51.464;-0.066;2023-04-25T01:00:32;20.50;;;4.33;;
60354;SDS011;46198;51.464;-0.066;2023-04-25T01:03:01;8.93;;;2.65;;
60354;SDS011;46198;51.464;-0.066;2023-04-25T01:05:30;13.57;;;3.20;;
60354;SDS011;46198;51.464;-0.066;2023-04-25T01:07:58;10.07;;;3.37;;
60354;SDS011;46198;51.464;-0.066;2023-04-25T01:10:27;9.60;;;3.70;;
60354;SDS011;46198;51.464;-0.066;2023-04-25T01:12:55;10.10;;;2.90;;
60354;SDS011;46198;51.464;-0.066;2023-04-25T01:15:23;12.63;;;3.40;;
60354;SDS011;46198;51.464;-0.066;2023-04-25T01:17:53;10.27;;;3.27;;
60354;SDS011;46198;51.464;-0.066;2023-04-25T01:20:22;9.10;;;2.90;;
60354;SDS011;46198;51.464;-0.066;2023-04-25T01:22:51;11.47;;;2.87;;
60354;SDS011;46198;51.464;-0.066;2023-04-25T01:25:21;20.23;;;3.28;;
60354;SDS011;46198;51.464;-0.066;2023-04-25T01:27:50;6.93;;;2.90;;
60354;SDS011;46198;51.464;-0.066;2023-04-25T01:30:18;14.87;;;3.30;;
60354;SDS011;46198;51.464;-0.066;2023-04-25T01:32:47;18.13;;;3.33;;
60354;SDS011;46198;51.464;-0.066;2023-04-25T01:35:16;14.17;;;3.17;;
60354;SDS011;46198;51.464;-0.066;2023-04-25T01:37:44;18.43;;;3.27;;
60354;SDS011;46198;51.464;-0.066;2023-04-25T01:40:14;15.30;;;3.63;;
60354;SDS011;46198;51.464;-0.066;2023-04-25T01:42:42;11.60;;;3.17;;
60354;SDS011;46198;51.464;-0.066;2023-04-25T01:45:12;7.93;;;2.63;;
60354;SDS011;46198;51.464;-0.066;2023-04-25T01:47:40;13.20;;;2.73;;
60354;SDS011;46198;51.464;-0.066;2023-04-25T01:50:10;14.70;;;3.17;;
60354;SDS011;46198;51.464;-0.066;2023-04-25T01:52:39;15.27;;;3.20;;
60354;SDS011;46198;51.464;-0.066;2023-04-25T01:55:08;13.37;;;3.33;;
60354;SDS011;46198;51.464;-0.066;2023-04-25T01:57:43;11.97;;;3.33;;
60354;SDS011;46198;51.464;-0.066;2023-04-25T02:00:11;13.50;;;3.43;;
60354;SDS011;46198;51.464;-0.066;2023-04-25T02:05:35;10.37;;;3.17;;
60354;SDS011;46198;51.464;-0.066;2023-04-25T02:10:34;11.63;;;4.37;;
60354;SDS011;46198;51.464;-0.066;2023-04-25T02:13:13;11.83;;;3.20;;
60354;SDS011;46198;51.464;-0.066;2023-04-25T02:19:19;11.43;;;2.63;;
60354;SDS011;46198;51.464;-0.066;2023-04-25T02:21:47;13.03;;;3.20;;
60354;SDS011;46198;51.464;-0.066;2023-04-25T02:24:15;8.87;;;3.27;;
60354;SDS011;46198;51.464;-0.066;2023-04-25T02:26:43;13.27;;;3.10;;
60354;SDS011;46198;51.464;-0.066;2023-04-25T02:29:14;12.43;;;3.20;;
60354;SDS011;46198;51.464;-0.066;2023-04-25T02:31:42;11.17;;;2.93;;
60354;SDS011;46198;51.464;-0.066;2023-04-25T02:34:10;7.50;;;3.63;;
60354;SDS011;46198;51.464;-0.066;2023-04-25T02:36:38;7.97;;;3.43;;
60354;SDS011;46198;51.464;-0.066;2023-04-25T02:39:06;7.70;;;2.83;;
60354;SDS011;46198;51.464;-0.066;2023-04-25T02:41:34;9.60;;;2.77;;
60354;SDS011;46198;51.464;-0.066;2023-04-25T02:44:02;10.87;;;2.90;;
60354;SDS011;46198;51.464;-0.066;2023-04-25T02:46:32;13.53;;;2.57;;
60354;SDS011;46198;51.464;-0.066;2023-04-25T02:49:05;13.87;;;2.80;;
60354;SDS011;46198;51.464;-0.066;2023-04-25T02:51:34;10.43;;;3.20;;
60354;SDS011;46198;51.464;-0.066;2023-04-25T02:54:02;8.97;;;2.57;;
60354;SDS011;46198;51.464;-0.066;2023-04-25T02:56:34;7.23;;;2.57;;
60354;SDS011;46198;51.464;-0.066;2023-04-25T02:59:12;13.80;;;2.40;;
60354;SDS011;46198;51.464;-0.066;2023-04-25T03:01:41;8.93;;;2.57;;
60354;SDS011;46198;51.464;-0.066;2023-04-25T03:04:09;12.53;;;2.47;;
60354;SDS011;46198;51.464;-0.066;2023-04-25T03:06:37;14.70;;;2.70;;
60354;SDS011;46198;51.464;-0.066;2023-04-25T03:09:05;9.00;;;2.63;;
60354;SDS011;46198;51.464;-0.066;2023-04-25T03:11:34;10.73;;;2.93;;
60354;SDS011;46198;51.464;-0.066;2023-04-25T03:14:02;14.17;;;2.93;;
60354;SDS011;46198;51.464;-0.066;2023-04-25T03:16:30;7.50;;;2.67;;
60354;SDS011;46198;51.464;-0.066;2023-04-25T03:18:59;12.40;;;2.00;;
60354;SDS011;46198;51.464;-0.066;2023-04-25T03:21:27;9.57;;;2.33;;
60354;SDS011;46198;51.464;-0.066;2023-04-25T03:23:57;9.30;;;2.87;;
60354;SDS011;46198;51.464;-0.066;2023-04-25T03:26:25;11.20;;;2.13;;
60354;SDS011;46198;51.464;-0.066;2023-04-25T03:28:53;8.70;;;2.37;;
60354;SDS011;46198;51.464;-0.066;2023-04-25T03:31:21;9.07;;;2.33;;
60354;SDS011;46198;51.464;-0.066;2023-04-25T03:33:49;8.53;;;2.30;;
60354;SDS011;46198;51.464;-0.066;2023-04-25T03:36:21;9.85;;;2.75;;
60354;SDS011;46198;51.464;-0.066;2023-04-25T03:38:49;5.10;;;2.33;;
60354;SDS011;46198;51.464;-0.066;2023-04-25T03:41:19;15.63;;;3.00;;
60354;SDS011;46198;51.464;-0.066;2023-04-25T03:43:52;8.53;;;2.90;;
60354;SDS011;46198;51.464;-0.066;2023-04-25T03:46:20;8.13;;;2.37;;
60354;SDS011;46198;51.464;-0.066;2023-04-25T03:48:48;11.93;;;2.47;;
60354;SDS011;46198;51.464;-0.066;2023-04-25T03:51:22;5.43;;;1.90;;
60354;SDS011;46198;51.464;-0.066;2023-04-25T03:53:51;9.80;;;2.87;;
60354;SDS011;46198;51.464;-0.066;2023-04-25T03:56:19;10.07;;;2.20;;
60354;SDS011;46198;51.464;-0.066;2023-04-25T03:58:55;10.30;;;2.67;;
60354;SDS011;46198;51.464;-0.066;2023-04-25T04:01:25;10.33;;;2.70;;
60354;SDS011;46198;51.464;-0.066;2023-04-25T04:03:53;10.87;;;2.77;;
60354;SDS011;46198;51.464;-0.066;2023-04-25T04:06:24;8.80;;;2.70;;
60354;SDS011;46198;51.464;-0.066;2023-04-25T04:09:00;12.03;;;2.70;;
60354;SDS011;46198;51.464;-0.066;2023-04-25T04:11:33;10.97;;;2.43;;
60354;SDS011;46198;51.464;-0.066;2023-04-25T04:14:03;8.55;;;2.60;;
60354;SDS011;46198;51.464;-0.066;2023-04-25T04:16:32;5.63;;;2.00;;
60354;SDS011;46198;51.464;-0.066;2023-04-25T04:19:01;10.93;;;3.20;;
60354;SDS011;46198;51.464;-0.066;2023-04-25T04:21:31;7.77;;;2.70;;
60354;SDS011;46198;51.464;-0.066;2023-04-25T04:27:04;11.33;;;2.60;;
60354;SDS011;46198;51.464;-0.066;2023-04-25T04:32:59;5.63;;;2.13;;
60354;SDS011;46198;51.464;-0.066;2023-04-25T04:35:29;8.20;;;2.17;;
60354;SDS011;46198;51.464;-0.066;2023-04-25T04:37:58;9.30;;;2.83;;
60354;SDS011;46198;51.464;-0.066;2023-04-25T04:40:31;7.60;;;2.70;;
60354;SDS011;46198;51.464;-0.066;2023-04-25T04:43:16;12.20;;;3.20;;
60354;SDS011;46198;51.464;-0.066;2023-04-25T04:45:54;14.20;;;2.50;;
60354;SDS011;46198;51.464;-0.066;2023-04-25T04:48:29;5.47;;;2.90;;
60354;SDS011;46198;51.464;-0.066;2023-04-25T04:51:21;8.53;;;2.90;;
60354;SDS011;46198;51.464;-0.066;2023-04-25T04:54:06;11.33;;;2.87;;
60354;SDS011;46198;51.464;-0.066;2023-04-25T04:56:54;7.57;;;2.20;;
60354;SDS011;46198;51.464;-0.066;2023-04-25T04:59:38;7.93;;;2.07;;
60354;SDS011;46198;51.464;-0.066;2023-04-25T05:02:41;11.90;;;2.70;;
60354;SDS011;46198;51.464;-0.066;2023-04-25T05:05:22;12.37;;;3.60;;
60354;SDS011;46198;51.464;-0.066;2023-04-25T05:08:09;9.97;;;2.60;;
60354;SDS011;46198;51.464;-0.066;2023-04-25T05:10:54;14.80;;;3.50;;
60354;SDS011;46198;51.464;-0.066;2023-04-25T05:13:42;7.60;;;2.73;;
60354;SDS011;46198;51.464;-0.066;2023-04-25T05:16:29;11.63;;;3.00;;
60354;SDS011;46198;51.464;-0.066;2023-04-25T05:19:15;4.77;;;2.17;;
60354;SDS011;46198;51.464;-0.066;2023-04-25T05:21:52;7.67;;;3.03;;
60354;SDS011;46198;51.464;-0.066;2023-04-25T05:24:43;12.83;;;2.57;;
60354;SDS011;46198;51.464;-0.066;2023-04-25T05:27:43;13.37;;;3.03;;
60354;SDS011;46198;51.464;-0.066;2023-04-25T05:30:29;12.20;;;2.50;;
60354;SDS011;46198;51.464;-0.066;2023-04-25T05:33:18;9.73;;;2.20;;
60354;SDS011;46198;51.464;-0.066;2023-04-25T05:35:46;8.13;;;2.50;;
60354;SDS011;46198;51.464;-0.066;2023-04-25T05:38:14;6.47;;;2.37;;
60354;SDS011;46198;51.464;-0.066;2023-04-25T05:41:01;11.47;;;2.70;;
60354;SDS011;46198;51.464;-0.066;2023-04-25T05:43:47;11.60;;;2.70;;
60354;SDS011;46198;51.464;-0.066;2023-04-25T05:46:35;12.83;;;3.10;;
60354;SDS011;46198;51.464;-0.066;2023-04-25T05:49:12;11.63;;;2.60;;
60354;SDS011;46198;51.464;-0.066;2023-04-25T05:52:01;7.10;;;2.03;;
60354;SDS011;46198;51.464;-0.066;2023-04-25T05:54:38;8.63;;;2.70;;
60354;SDS011;46198;51.464;-0.066;2023-04-25T05:57:06;8.03;;;2.83;;
60354;SDS011;46198;51.464;-0.066;2023-04-25T05:59:36;11.30;;;2.77;;
60354;SDS011;46198;51.464;-0.066;2023-04-25T06:02:04;8.10;;;2.40;;
60354;SDS011;46198;51.464;-0.066;2023-04-25T06:04:34;8.95;;;2.83;;
60354;SDS011;46198;51.464;-0.066;2023-04-25T06:07:03;8.50;;;3.10;;
60354;SDS011;46198;51.464;-0.066;2023-04-25T06:09:31;11.63;;;3.07;;
60354;SDS011;46198;51.464;-0.066;2023-04-25T06:11:59;8.67;;;2.37;;
60354;SDS011;46198;51.464;-0.066;2023-04-25T06:14:28;12.90;;;2.90;;
60354;SDS011;46198;51.464;-0.066;2023-04-25T06:16:58;8.23;;;2.83;;
60354;SDS011;46198;51.464;-0.066;2023-04-25T06:19:32;10.07;;;2.80;;
60354;SDS011;46198;51.464;-0.066;2023-04-25T06:22:01;12.43;;;3.23;;
60354;SDS011;46198;51.464;-0.066;2023-04-25T06:24:30;12.63;;;2.87;;
60354;SDS011;46198;51.464;-0.066;2023-04-25T06:27:00;12.07;;;5.37;;
60354;SDS011;46198;51.464;-0.066;2023-04-25T06:29:28;8.67;;;2.80;;
60354;SDS011;46198;51.464;-0.066;2023-04-25T06:31:56;11.20;;;3.10;;
60354;SDS011;46198;51.464;-0.066;2023-04-25T06:34:26;9.10;;;2.70;;
60354;SDS011;46198;51.464;-0.066;2023-04-25T06:36:54;8.07;;;3.33;;
60354;SDS011;46198;51.464;-0.066;2023-04-25T06:39:22;15.13;;;3.13;;
60354;SDS011;46198;51.464;-0.066;2023-04-25T06:41:52;6.43;;;2.83;;
60354;SDS011;46198;51.464;-0.066;2023-04-25T06:44:38;8.63;;;3.40;;
60354;SDS011;46198;51.464;-0.066;2023-04-25T06:47:09;10.33;;;3.17;;
60354;SDS011;46198;51.464;-0.066;2023-04-25T06:49:39;11.25;;;2.95;;
60354;SDS011;46198;51.464;-0.066;2023-04-25T06:52:08;8.67;;;2.53;;
60354;SDS011;46198;51.464;-0.066;2023-04-25T06:54:37;9.07;;;3.00;;
60354;SDS011;46198;51.464;-0.066;2023-04-25T06:57:29;16.67;;;3.07;;
60354;SDS011;46198;51.464;-0.066;2023-04-25T07:00:08;6.40;;;2.57;;
60354;SDS011;46198;51.464;-0.066;2023-04-25T07:02:39;8.20;;;2.57;;
60354;SDS011;46198;51.464;-0.066;2023-04-25T07:05:09;9.77;;;2.70;;
60354;SDS011;46198;51.464;-0.066;2023-04-25T07:07:37;9.97;;;2.33;;
60354;SDS011;46198;51.464;-0.066;2023-04-25T07:10:05;9.03;;;2.60;;
60354;SDS011;46198;51.464;-0.066;2023-04-25T07:12:34;12.57;;;2.73;;
60354;SDS011;46198;51.464;-0.066;2023-04-25T07:15:02;7.27;;;2.50;;
60354;SDS011;46198;51.464;-0.066;2023-04-25T07:17:32;7.65;;;2.90;;
60354;SDS011;46198;51.464;-0.066;2023-04-25T07:20:03;8.07;;;2.03;;
60354;SDS011;46198;51.464;-0.066;2023-04-25T07:22:32;9.10;;;2.75;;
60354;SDS011;46198;51.464;-0.066;2023-04-25T07:25:02;11.80;;;2.30;;
60354;SDS011;46198;51.464;-0.066;2023-04-25T07:27:31;5.77;;;2.47;;
60354;SDS011;46198;51.464;-0.066;2023-04-25T07:30:05;7.97;;;2.43;;
60354;SDS011;46198;51.464;-0.066;2023-04-25T07:32:34;8.90;;;2.90;;
60354;SDS011;46198;51.464;-0.066;2023-04-25T07:35:04;8.83;;;2.93;;
60354;SDS011;46198;51.464;-0.066;2023-04-25T07:37:34;7.60;;;2.87;;
60354;SDS011;46198;51.464;-0.066;2023-04-25T07:40:09;12.07;;;2.73;;
60354;SDS011;46198;51.464;-0.066;2023-04-25T07:42:43;9.83;;;2.50;;
60354;SDS011;46198;51.464;-0.066;2023-04-25T07:45:16;7.57;;;2.83;;
60354;SDS011;46198;51.464;-0.066;2023-04-25T07:47:44;10.97;;;2.87;;
60354;SDS011;46198;51.464;-0.066;2023-04-25T07:50:14;9.67;;;3.07;;
60354;SDS011;46198;51.464;-0.066;2023-04-25T07:52:42;14.87;;;2.93;;
60354;SDS011;46198;51.464;-0.066;2023-04-25T07:55:20;7.23;;;2.73;;
60354;SDS011;46198;51.464;-0.066;2023-04-25T07:58:06;9.87;;;2.87;;
60354;SDS011;46198;51.464;-0.066;2023-04-25T08:00:36;8.15;;;3.17;;
60354;SDS011;46198;51.464;-0.066;2023-04-25T08:03:27;10.07;;;2.40;;
60354;SDS011;46198;51.464;-0.066;2023-04-25T08:05:58;10.13;;;3.63;;
60354;SDS011;46198;51.464;-0.066;2023-04-25T08:08:32;4.63;;;2.03;;
60354;SDS011;46198;51.464;-0.066;2023-04-25T08:11:00;9.03;;;2.97;;
60354;SDS011;46198;51.464;-0.066;2023-04-25T08:13:28;9.07;;;2.23;;
60354;SDS011;46198;51.464;-0.066;2023-04-25T08:15:56;7.43;;;3.13;;
60354;SDS011;46198;51.464;-0.066;2023-04-25T08:18:25;7.63;;;2.67;;
60354;SDS011;46198;51.464;-0.066;2023-04-25T08:20:53;11.07;;;2.00;;
60354;SDS011;46198;51.464;-0.066;2023-04-25T08:23:23;5.73;;;2.20;;
60354;SDS011;46198;51.464;-0.066;2023-04-25T08:26:03;6.47;;;2.37;;
60354;SDS011;46198;51.464;-0.066;2023-04-25T08:28:34;4.23;;;1.87;;
60354;SDS011;46198;51.464;-0.066;2023-04-25T08:31:02;9.60;;;3.23;;
60354;SDS011;46198;51.464;-0.066;2023-04-25T08:33:38;7.20;;;2.00;;
60354;SDS011;46198;51.464;-0.066;2023-04-25T08:36:17;6.90;;;1.87;;
60354;SDS011;46198;51.464;-0.066;2023-04-25T08:39:05;6.27;;;1.87;;
60354;SDS011;46198;51.464;-0.066;2023-04-25T08:41:41;8.77;;;2.27;;
60354;SDS011;46198;51.464;-0.066;2023-04-25T08:44:11;10.30;;;2.50;;
60354;SDS011;46198;51.464;-0.066;2023-04-25T08:46:39;5.88;;;1.95;;
60354;SDS011;46198;51.464;-0.066;2023-04-25T08:49:20;8.48;;;2.28;;
60354;SDS011;46198;51.464;-0.066;2023-04-25T08:51:49;8.50;;;1.90;;
60354;SDS011;46198;51.464;-0.066;2023-04-25T08:54:23;7.77;;;2.30;;
60354;SDS011;46198;51.464;-0.066;2023-04-25T08:57:03;6.60;;;2.30;;
60354;SDS011;46198;51.464;-0.066;2023-04-25T08:59:32;10.75;;;2.25;;
60354;SDS011;46198;51.464;-0.066;2023-04-25T09:02:04;8.13;;;2.55;;
60354;SDS011;46198;51.464;-0.066;2023-04-25T09:04:33;7.22;;;2.83;;
60354;SDS011;46198;51.464;-0.066;2023-04-25T09:07:01;10.95;;;2.35;;
60354;SDS011;46198;51.464;-0.066;2023-04-25T09:09:31;13.25;;;2.10;;
60354;SDS011;46198;51.464;-0.066;2023-04-25T09:11:59;7.05;;;2.33;;
60354;SDS011;46198;51.464;-0.066;2023-04-25T09:14:28;9.35;;;2.05;;
60354;SDS011;46198;51.464;-0.066;2023-04-25T09:17:19;6.88;;;1.75;;
60354;SDS011;46198;51.464;-0.066;2023-04-25T09:19:52;5.28;;;2.35;;
60354;SDS011;46198;51.464;-0.066;2023-04-25T09:22:26;5.28;;;1.90;;
60354;SDS011;46198;51.464;-0.066;2023-04-25T09:24:55;6.20;;;2.10;;
60354;SDS011;46198;51.464;-0.066;2023-04-25T09:27:26;7.25;;;2.00;;
60354;SDS011;46198;51.464;-0.066;2023-04-25T09:30:12;7.18;;;1.90;;
60354;SDS011;46198;51.464;-0.066;2023-04-25T09:33:03;7.47;;;2.10;;
60354;SDS011;46198;51.464;-0.066;2023-04-25T09:35:34;5.40;;;2.15;;
60354;SDS011;46198;51.464;-0.066;2023-04-25T09:38:08;4.13;;;1.85;;
60354;SDS011;46198;51.464;-0.066;2023-04-25T09:41:02;4.20;;;1.25;;
60354;SDS011;46198;51.464;-0.066;2023-04-25T09:43:45;3.20;;;1.88;;
60354;SDS011;46198;51.464;-0.066;2023-04-25T09:46:14;4.75;;;1.77;;
60354;SDS011;46198;51.464;-0.066;2023-04-25T09:48:51;8.32;;;1.80;;
60354;SDS011;46198;51.464;-0.066;2023-04-25T09:51:28;7.70;;;2.78;;
60354;SDS011;46198;51.464;-0.066;2023-04-25T09:53:58;2.88;;;1.35;;
60354;SDS011;46198;51.464;-0.066;2023-04-25T09:56:43;6.22;;;1.63;;
60354;SDS011;46198;51.464;-0.066;2023-04-25T09:59:14;6.60;;;1.48;;
60354;SDS011;46198;51.464;-0.066;2023-04-25T10:01:43;5.88;;;1.60;;
60354;SDS011;46198;51.464;-0.066;2023-04-25T10:04:24;6.10;;;1.45;;
60354;SDS011;46198;51.464;-0.066;2023-04-25T10:07:04;3.15;;;1.55;;
60354;SDS011;46198;51.464;-0.066;2023-04-25T10:09:36;7.13;;;1.45;;
60354;SDS011;46198;51.464;-0.066;2023-04-25T10:12:07;5.97;;;1.50;;
60354;SDS011;46198;51.464;-0.066;2023-04-25T10:14:35;4.00;;;1.80;;
60354;SDS011;46198;51.464;-0.066;2023-04-25T10:17:03;3.58;;;1.10;;
60354;SDS011;46198;51.464;-0.066;2023-04-25T10:19:31;3.88;;;1.38;;
60354;SDS011;46198;51.464;-0.066;2023-04-25T10:22:04;4.45;;;1.60;;
60354;SDS011;46198;51.464;-0.066;2023-04-25T10:24:35;6.95;;;1.90;;
60354;SDS011;46198;51.464;-0.066;2023-04-25T10:27:04;4.32;;;2.20;;
60354;SDS011;46198;51.464;-0.066;2023-04-25T10:29:34;7.28;;;1.58;;
60354;SDS011;46198;51.464;-0.066;2023-04-25T10:32:03;3.43;;;1.13;;
60354;SDS011;46198;51.464;-0.066;2023-04-25T10:34:38;3.95;;;1.45;;
60354;SDS011;46198;51.464;-0.066;2023-04-25T10:37:10;4.05;;;1.48;;
60354;SDS011;46198;51.464;-0.066;2023-04-25T10:39:41;4.85;;;1.25;;
60354;SDS011;46198;51.464;-0.066;2023-04-25T10:42:10;8.25;;;2.28;;
60354;SDS011;46198;51.464;-0.066;2023-04-25T10:44:40;2.20;;;1.10;;
60354;SDS011;46198;51.464;-0.066;2023-04-25T10:47:34;8.03;;;1.70;;
60354;SDS011;46198;51.464;-0.066;2023-04-25T10:50:07;3.83;;;1.40;;
60354;SDS011;46198;51.464;-0.066;2023-04-25T10:52:38;5.80;;;1.60;;
60354;SDS011;46198;51.464;-0.066;2023-04-25T10:55:07;3.03;;;1.35;;
60354;SDS011;46198;51.464;-0.066;2023-04-25T10:57:36;2.08;;;1.15;;
60354;SDS011;46198;51.464;-0.066;2023-04-25T11:00:07;4.00;;;1.55;;
60354;SDS011;46198;51.464;-0.066;2023-04-25T11:02:41;6.00;;;1.50;;
60354;SDS011;46198;51.464;-0.066;2023-04-25T11:05:22;3.30;;;1.60;;
60354;SDS011;46198;51.464;-0.066;2023-04-25T11:07:59;5.25;;;1.80;;
60354;SDS011;46198;51.464;-0.066;2023-04-25T11:10:33;3.55;;;1.85;;
60354;SDS011;46198;51.464;-0.066;2023-04-25T11:13:03;5.97;;;1.85;;
60354;SDS011;46198;51.464;-0.066;2023-04-25T11:15:33;5.00;;;1.60;;
60354;SDS011;46198;51.464;-0.066;2023-04-25T11:18:01;4.57;;;2.10;;
60354;SDS011;46198;51.464;-0.066;2023-04-25T11:20:29;4.57;;;1.98;;
60354;SDS011;46198;51.464;-0.066;2023-04-25T11:22:57;4.65;;;2.10;;
60354;SDS011;46198;51.464;-0.066;2023-04-25T11:25:26;2.85;;;1.88;;
60354;SDS011;46198;51.464;-0.066;2023-04-25T11:27:57;4.40;;;1.67;;
60354;SDS011;46198;51.464;-0.066;2023-04-25T11:30:27;9.50;;;2.28;;
60354;SDS011;46198;51.464;-0.066;2023-04-25T11:32:58;3.08;;;2.00;;
60354;SDS011;46198;51.464;-0.066;2023-04-25T11:35:26;6.10;;;2.28;;
60354;SDS011;46198;51.464;-0.066;2023-04-25T11:37:54;3.05;;;1.88;;
60354;SDS011;46198;51.464;-0.066;2023-04-25T11:40:22;2.90;;;1.80;;
60354;SDS011;46198;51.464;-0.066;2023-04-25T11:42:51;7.85;;;2.20;;
60354;SDS011;46198;51.464;-0.066;2023-04-25T11:45:20;4.75;;;2.08;;
60354;SDS011;46198;51.464;-0.066;2023-04-25T11:47:50;3.13;;;2.42;;
60354;SDS011;46198;51.464;-0.066;2023-04-25T11:50:20;5.53;;;2.13;;
60354;SDS011;46198;51.464;-0.066;2023-04-25T11:52:49;7.63;;;2.70;;
60354;SDS011;46198;51.464;-0.066;2023-04-25T11:55:17;4.63;;;2.38;;
60354;SDS011;46198;51.464;-0.066;2023-04-25T11:57:47;4.10;;;2.40;;
60354;SDS011;46198;51.464;-0.066;2023-04-25T12:00:17;5.10;;;2.27;;
60354;SDS011;46198;51.464;-0.066;2023-04-25T12:02:47;3.83;;;2.45;;
60354;SDS011;46198;51.464;-0.066;2023-04-25T12:05:18;3.50;;;2.03;;
60354;SDS011;46198;51.464;-0.066;2023-04-25T12:07:59;3.70;;;2.33;;
60354;SDS011;46198;51.464;-0.066;2023-04-25T12:10:38;6.60;;;2.95;;
60354;SDS011;46198;51.464;-0.066;2023-04-25T12:13:19;5.82;;;2.50;;
60354;SDS011;46198;51.464;-0.066;2023-04-25T12:15:48;3.90;;;2.17;;
60354;SDS011;46198;51.464;-0.066;2023-04-25T12:18:18;4.43;;;2.20;;
60354;SDS011;46198;51.464;-0.066;2023-04-25T12:20:47;6.95;;;2.20;;
60354;SDS011;46198;51.464;-0.066;2023-04-25T12:23:17;6.20;;;2.92;;
60354;SDS011;46198;51.464;-0.066;2023-04-25T12:25:52;3.13;;;2.58;;
60354;SDS011;46198;51.464;-0.066;2023-04-25T12:28:21;4.05;;;2.30;;
60354;SDS011;46198;51.464;-0.066;2023-04-25T12:30:54;6.10;;;2.50;;
60354;SDS011;46198;51.464;-0.066;2023-04-25T12:33:25;4.97;;;2.45;;
60354;SDS011;46198;51.464;-0.066;2023-04-25T12:35:54;3.22;;;2.28;;
60354;SDS011;46198;51.464;-0.066;2023-04-25T12:38:24;4.00;;;2.53;;
60354;SDS011;46198;51.464;-0.066;2023-04-25T12:40:53;5.43;;;2.22;;
60354;SDS011;46198;51.464;-0.066;2023-04-25T12:43:22;4.45;;;2.58;;
60354;SDS011;46198;51.464;-0.066;2023-04-25T12:45:50;5.22;;;2.65;;
60354;SDS011;46198;51.464;-0.066;2023-04-25T12:48:19;4.28;;;2.10;;
60354;SDS011;46198;51.464;-0.066;2023-04-25T12:50:48;3.22;;;1.92;;
60354;SDS011;46198;51.464;-0.066;2023-04-25T12:53:18;3.42;;;2.38;;
60354;SDS011;46198;51.464;-0.066;2023-04-25T12:55:48;3.28;;;2.40;;
60354;SDS011;46198;51.464;-0.066;2023-04-25T12:58:17;5.57;;;2.05;;
60354;SDS011;46198;51.464;-0.066;2023-04-25T13:00:46;4.47;;;2.80;;
60354;SDS011;46198;51.464;-0.066;2023-04-25T13:03:14;4.88;;;2.80;;
60354;SDS011;46198;51.464;-0.066;2023-04-25T13:05:43;6.10;;;2.53;;
60354;SDS011;46198;51.464;-0.066;2023-04-25T13:08:11;6.32;;;2.47;;
60354;SDS011;46198;51.464;-0.066;2023-04-25T13:10:39;4.15;;;2.17;;
60354;SDS011;46198;51.464;-0.066;2023-04-25T13:13:08;5.13;;;2.00;;
60354;SDS011;46198;51.464;-0.066;2023-04-25T13:15:37;4.32;;;2.25;;
60354;SDS011;46198;51.464;-0.066;2023-04-25T13:18:05;3.78;;;1.92;;
60354;SDS011;46198;51.464;-0.066;2023-04-25T13:20:33;5.20;;;2.15;;
60354;SDS011;46198;51.464;-0.066;2023-04-25T13:23:01;5.20;;;2.05;;
60354;SDS011;46198;51.464;-0.066;2023-04-25T13:25:29;2.78;;;2.20;;
60354;SDS011;46198;51.464;-0.066;2023-04-25T13:27:57;5.20;;;2.70;;
60354;SDS011;46198;51.464;-0.066;2023-04-25T13:30:27;2.97;;;2.00;;
60354;SDS011;46198;51.464;-0.066;2023-04-25T13:32:55;4.10;;;2.92;;
60354;SDS011;46198;51.464;-0.066;2023-04-25T13:35:27;4.25;;;2.15;;
60354;SDS011;46198;51.464;-0.066;2023-04-25T13:37:55;4.90;;;1.98;;
60354;SDS011;46198;51.464;-0.066;2023-04-25T13:40:23;6.82;;;1.95;;
60354;SDS011;46198;51.464;-0.066;2023-04-25T13:42:51;7.38;;;2.25;;
60354;SDS011;46198;51.464;-0.066;2023-04-25T13:45:19;2.53;;;1.67;;
60354;SDS011;46198;51.464;-0.066;2023-04-25T13:47:49;5.15;;;2.58;;
60354;SDS011;46198;51.464;-0.066;2023-04-25T13:50:17;4.57;;;2.30;;
60354;SDS011;46198;51.464;-0.066;2023-04-25T13:52:45;4.65;;;2.03;;
60354;SDS011;46198;51.464;-0.066;2023-04-25T13:55:14;6.85;;;1.95;;
60354;SDS011;46198;51.464;-0.066;2023-04-25T13:57:42;4.47;;;2.05;;
60354;SDS011;46198;51.464;-0.066;2023-04-25T14:00:10;4.30;;;2.03;;
60354;SDS011;46198;51.464;-0.066;2023-04-25T14:02:39;3.60;;;2.10;;
60354;SDS011;46198;51.464;-0.066;2023-04-25T14:05:09;5.05;;;1.90;;
60354;SDS011;46198;51.464;-0.066;2023-04-25T14:07:37;5.05;;;2.75;;
60354;SDS011;46198;51.464;-0.066;2023-04-25T14:10:06;4.32;;;2.58;;
60354;SDS011;46198;51.464;-0.066;2023-04-25T14:12:35;3.53;;;2.03;;
60354;SDS011;46198;51.464;-0.066;2023-04-25T14:15:03;3.10;;;2.00;;
60354;SDS011;46198;51.464;-0.066;2023-04-25T14:17:32;4.40;;;2.30;;
60354;SDS011;46198;51.464;-0.066;2023-04-25T14:20:00;3.80;;;1.88;;
60354;SDS011;46198;51.464;-0.066;2023-04-25T14:22:30;5.15;;;1.90;;
60354;SDS011;46198;51.464;-0.066;2023-04-25T14:24:58;2.60;;;1.83;;
60354;SDS011;46198;51.464;-0.066;2023-04-25T14:27:26;4.88;;;2.95;;
60354;SDS011;46198;51.464;-0.066;2023-04-25T14:29:54;4.28;;;2.17;;
60354;SDS011;46198;51.464;-0.066;2023-04-25T14:32:22;4.65;;;2.00;;
60354;SDS011;46198;51.464;-0.066;2023-04-25T14:34:51;4.47;;;2.20;;
60354;SDS011;46198;51.464;-0.066;2023-04-25T14:37:19;6.28;;;2.40;;
60354;SDS011;46198;51.464;-0.066;2023-04-25T14:39:48;4.00;;;1.90;;
60354;SDS011;46198;51.464;-0.066;2023-04-25T14:42:16;4.15;;;1.80;;
60354;SDS011;46198;51.464;-0.066;2023-04-25T14:44:44;5.10;;;1.80;;
60354;SDS011;46198;51.464;-0.066;2023-04-25T14:47:12;3.15;;;2.42;;
60354;SDS011;46198;51.464;-0.066;2023-04-25T14:49:42;3.55;;;2.05;;
60354;SDS011;46198;51.464;-0.066;2023-04-25T14:52:10;3.97;;;2.00;;
60354;SDS011;46198;51.464;-0.066;2023-04-25T14:54:38;2.35;;;1.88;;
60354;SDS011;46198;51.464;-0.066;2023-04-25T14:57:07;5.30;;;2.15;;
60354;SDS011;46198;51.464;-0.066;2023-04-25T14:59:35;3.38;;;1.90;;
60354;SDS011;46198;51.464;-0.066;2023-04-25T15:02:04;6.80;;;2.22;;
60354;SDS011;46198;51.464;-0.066;2023-04-25T15:04:33;6.80;;;2.55;;
60354;SDS011;46198;51.464;-0.066;2023-04-25T15:07:01;7.78;;;2.22;;
60354;SDS011;46198;51.464;-0.066;2023-04-25T15:09:30;7.65;;;2.40;;
60354;SDS011;46198;51.464;-0.066;2023-04-25T15:11:58;7.18;;;2.20;;